Time;durP1;ratioP1;P1;durP2;ratioP2;P2;SDS_P1;SDS_P2;PMS_P1;PMS_P2;Temp;Humidity;BMP_temperature;BMP_pressure;BME280_temperature;BME280_humidity;BME280_pressure;Samples;Min_cycle;Max_cycle;Signal;HPM_P1;HPM_P2
2021/12/10 00:05:28;;;;;;;32.63;20.40;;;;;;;-145.45;100.00;62759.84;5194016;28;20044;-89
2021/12/10 00:08:13;;;;;;;38.58;23.05;;;;;;;-145.45;100.00;62759.84;5223123;28;20033;-89
2021/12/10 00:11:22;;;;;;;37.13;20.73;;;;;;;-145.45;100.00;62759.84;5226537;28;20051;-88
2021/12/10 00:14:17;;;;;;;34.78;19.02;;;;;;;-145.45;100.00;62759.84;5230138;28;20053;-88
2021/12/10 00:17:20;;;;;;;30.15;18.17;;;;;;;-145.45;100.00;62759.84;5223315;28;20113;-89
2021/12/10 00:20:10;;;;;;;26.08;17.48;;;;;;;-145.45;100.00;62759.84;5203823;28;20473;-88
2021/12/10 00:22:56;;;;;;;25.35;17.45;;;;;;;-145.45;100.00;62759.84;5239990;28;20475;-88
2021/12/10 00:25:38;;;;;;;27.95;16.50;;;;;;;-145.45;100.00;62759.84;5220784;28;20038;-86
2021/12/10 00:28:39;;;;;;;23.83;14.45;;;;;;;-145.45;100.00;62759.84;5204192;28;20027;-88
2021/12/10 00:31:57;;;;;;;26.40;14.85;;;;;;;-145.45;100.00;62759.84;5216729;28;20080;-87
2021/12/10 00:34:49;;;;;;;23.98;14.13;;;;;;;-145.45;100.00;62759.84;5221890;28;20057;-86
2021/12/10 00:37:27;;;;;;;17.25;11.40;;;;;;;-145.45;100.00;62759.84;5221396;28;20046;-89
2021/12/10 00:40:20;;;;;;;27.15;11.48;;;;;;;-145.45;100.00;62759.84;5239899;28;20026;-89
2021/12/10 00:46:47;;;;;;;23.10;11.05;;;;;;;-145.45;100.00;62759.84;5245392;28;20046;-87
2021/12/10 00:49:47;;;;;;;;;;;;;;;;;;;;;
2021/12/10 00:52:35;;;;;;;16.50;10.25;;;;;;;-145.45;100.00;62759.84;5264438;28;40309;-88
2021/12/10 00:58:40;;;;;;;12.52;8.63;;;;;;;-145.45;100.00;62759.84;5244013;28;20022;-88
2021/12/10 01:01:21;;;;;;;12.77;8.23;;;;;;;-145.45;100.00;62759.84;5255574;28;20469;-88
2021/12/10 01:04:26;;;;;;;21.90;9.25;;;;;;;-145.45;100.00;62759.84;5249112;28;20053;-86
2021/12/10 01:07:18;;;;;;;19.42;8.23;;;;;;;-145.45;100.00;62759.84;5250195;28;20124;-89
2021/12/10 01:10:40;;;;;;;19.80;9.23;;;;;;;-145.45;100.00;62759.84;5239431;28;20030;-87
2021/12/10 01:13:27;;;;;;;17.75;8.35;;;;;;;-145.45;100.00;62759.84;5196483;28;20120;-88
2021/12/10 01:28:54;;;;;;;19.48;8.82;;;;;;;-145.45;100.00;62759.84;5257464;28;20112;-86
2021/12/10 01:31:31;;;;;;;21.20;8.73;;;;;;;-145.45;100.00;62759.84;5255105;28;20037;-87
2021/12/10 01:34:26;;;;;;;18.63;8.32;;;;;;;-145.45;100.00;62759.84;5241085;28;20036;-87
2021/12/10 01:37:15;;;;;;;19.50;8.85;;;;;;;-145.45;100.00;62759.84;5245844;28;20046;-88
2021/12/10 01:40:22;;;;;;;27.77;9.10;;;;;;;-145.45;100.00;62759.84;5258756;28;20393;-88
2021/12/10 01:43:12;;;;;;;13.68;7.85;;;;;;;-145.45;100.00;62759.84;5243545;28;20037;-87
2021/12/10 01:46:02;;;;;;;12.40;7.28;;;;;;;-145.45;100.00;62759.84;5225351;28;20097;-88
2021/12/10 01:51:51;;;;;;;18.63;9.00;;;;;;;-145.45;100.00;62759.84;5180748;28;20063;-88
2021/12/10 01:57:50;;;;;;;17.35;7.30;;;;;;;-145.45;100.00;62759.84;5264375;28;20052;-87
2021/12/10 02:00:37;;;;;;;13.65;7.90;;;;;;;-145.45;100.00;62759.84;5244287;28;20034;-88
2021/12/10 02:03:26;;;;;;;16.65;7.90;;;;;;;-145.45;100.00;62759.84;5234272;28;20046;-88
2021/12/10 02:06:17;;;;;;;17.30;6.90;;;;;;;-145.45;100.00;62759.84;5241782;28;20037;-88
2021/12/10 02:09:12;;;;;;;12.45;5.72;;;;;;;-145.45;100.00;62759.84;5224771;28;20038;-88
2021/12/10 02:12:38;;;;;;;16.10;7.13;;;;;;;-145.45;100.00;62759.84;5208351;28;20466;-88
2021/12/10 02:21:39;;;;;;;18.08;6.78;;;;;;;-145.45;100.00;62759.84;5219594;28;20372;-89
2021/12/10 02:24:25;;;;;;;15.32;5.90;;;;;;;-145.45;100.00;62759.84;5237979;28;20084;-89
2021/12/10 02:27:08;;;;;;;12.88;5.85;;;;;;;-145.45;100.00;62759.84;5217848;28;20034;-88
2021/12/10 02:37:03;;;;;;;13.07;4.75;;;;;;;-145.45;100.00;62759.84;5225137;28;20034;-89
2021/12/10 02:39:55;;;;;;;9.20;4.55;;;;;;;-145.45;100.00;62759.84;5216618;28;20030;-89
2021/12/10 02:42:36;;;;;;;9.80;4.00;;;;;;;-145.45;100.00;62759.84;5221408;28;20038;-89
2021/12/10 02:45:44;;;;;;;13.57;4.68;;;;;;;-145.45;100.00;62759.84;5220847;28;20527;-89
2021/12/10 02:48:35;;;;;;;9.25;3.85;;;;;;;-145.45;100.00;62759.84;5240302;28;20506;-89
2021/12/10 02:54:57;;;;;;;10.88;4.30;;;;;;;-145.45;100.00;62759.84;5220690;28;20034;-89
2021/12/10 02:58:05;;;;;;;;;;;;;;;;;;;;;
2021/12/10 03:04:10;;;;;;;10.35;3.40;;;;;;;-145.45;100.00;62759.84;5262504;28;19921;-90
2021/12/10 03:07:18;;;;;;;10.20;3.25;;;;;;;-145.45;100.00;62759.84;5236868;28;20029;-90
2021/12/10 03:10:09;;;;;;;9.77;3.40;;;;;;;-145.45;100.00;62759.84;5257595;28;20382;-89
2021/12/10 03:12:46;;;;;;;12.75;3.72;;;;;;;-145.45;100.00;62759.84;5243976;28;20072;-90
2021/12/10 03:15:59;;;;;;;;;;;;;;;;;;;;;
2021/12/10 03:18:46;;;;;;;10.73;3.10;;;;;;;-145.45;100.00;62759.84;5170651;28;41811;-89
2021/12/10 03:21:38;;;;;;;10.32;4.55;;;;;;;-145.45;100.00;62759.84;5182314;28;20496;-89
2021/12/10 03:24:59;;;;;;;12.98;3.30;;;;;;;-145.45;100.00;62759.84;5180751;28;20495;-89
2021/12/10 03:28:08;;;;;;;6.20;3.10;;;;;;;-145.45;100.00;62759.84;5095500;29;20112;-90
2021/12/10 03:34:55;;;;;;;9.88;2.78;;;;;;;-145.45;100.00;62759.84;5150689;28;20025;-89
2021/12/10 03:38:00;;;;;;;10.48;3.25;;;;;;;-145.45;100.00;62759.84;5129980;28;20492;-88
2021/12/10 03:44:16;;;;;;;12.00;3.13;;;;;;;-145.45;100.00;62759.84;5172495;28;20031;-88
2021/12/10 03:47:12;;;;;;;5.45;2.88;;;;;;;-145.45;100.00;62759.84;5134630;28;20028;-86
2021/12/10 03:49:44;;;;;;;10.32;2.92;;;;;;;-145.45;100.00;62759.84;5205894;28;20059;-88
2021/12/10 03:52:26;;;;;;;7.68;2.65;;;;;;;-145.45;100.00;62759.84;5213556;28;20046;-89
2021/12/10 03:55:09;;;;;;;9.93;2.80;;;;;;;-145.45;100.00;62759.84;5214598;28;20034;-89
2021/12/10 03:57:40;;;;;;;9.95;3.42;;;;;;;-145.45;100.00;62759.84;5227707;28;20065;-88
2021/12/10 04:00:29;;;;;;;9.02;2.60;;;;;;;-145.45;100.00;62759.84;5223138;28;20034;-89
2021/12/10 04:03:07;;;;;;;7.88;2.75;;;;;;;-145.45;100.00;62759.84;5255543;28;20103;-90
2021/12/10 04:08:53;;;;;;;7.88;2.80;;;;;;;-145.45;100.00;62759.84;5266090;28;20061;-89
2021/12/10 04:11:26;;;;;;;7.95;3.13;;;;;;;-145.45;100.00;62759.84;5253731;28;20315;-89
2021/12/10 04:17:32;;;;;;;11.02;3.67;;;;;;;-145.45;100.00;62759.84;5248082;28;20451;-89
2021/12/10 04:24:02;;;;;;;8.13;3.28;;;;;;;-145.45;100.00;62759.84;5258640;28;20120;-89
2021/12/10 04:26:42;;;;;;;7.30;3.22;;;;;;;-145.45;100.00;62759.84;5253661;28;20033;-89
2021/12/10 04:29:22;;;;;;;12.27;3.40;;;;;;;-145.45;100.00;62759.84;5246089;28;20046;-89
2021/12/10 04:32:10;;;;;;;9.10;3.03;;;;;;;-145.45;100.00;62759.84;5261811;28;20025;-90
2021/12/10 04:34:53;;;;;;;9.18;3.33;;;;;;;-145.45;100.00;62759.84;5265426;28;20740;-89
2021/12/10 04:37:31;;;;;;;8.30;3.42;;;;;;;-145.45;100.00;62759.84;5265418;28;20486;-89
2021/12/10 04:40:20;;;;;;;10.05;2.97;;;;;;;-145.45;100.00;62759.84;5250968;28;20572;-89
2021/12/10 04:43:28;;;;;;;10.15;3.33;;;;;;;-145.45;100.00;62759.84;5255781;28;20126;-89
2021/12/10 04:46:12;;;;;;;8.97;2.73;;;;;;;-145.45;100.00;62759.84;5155491;28;20036;-89
2021/12/10 04:49:14;;;;;;;8.32;3.47;;;;;;;-145.45;100.00;62759.84;5134839;28;20051;-89
2021/12/10 04:55:36;;;;;;;7.57;3.10;;;;;;;-145.45;100.00;62759.84;5086339;29;20025;-88
2021/12/10 04:58:25;;;;;;;14.45;3.05;;;;;;;-145.45;100.00;62759.84;5258779;28;20037;-88
2021/12/10 05:01:11;;;;;;;12.55;2.95;;;;;;;-145.45;100.00;62759.84;5237891;28;20069;-86
2021/12/10 05:04:06;;;;;;;11.02;2.70;;;;;;;-145.45;100.00;62759.84;5242267;28;20045;-86
2021/12/10 05:14:15;;;;;;;9.15;2.67;;;;;;;-145.45;100.00;62759.84;5266446;28;20497;-86
2021/12/10 05:17:02;;;;;;;10.17;3.13;;;;;;;-145.45;100.00;62759.84;5244883;28;20054;-86
2021/12/10 05:23:39;;;;;;;9.95;3.28;;;;;;;-145.45;100.00;62759.84;5119681;29;20041;-88
2021/12/10 05:26:19;;;;;;;9.57;3.33;;;;;;;-145.45;100.00;62759.84;5137718;28;20039;-88
2021/12/10 05:28:57;;;;;;;7.25;3.03;;;;;;;-145.45;100.00;62759.84;5254948;28;20033;-86
2021/12/10 05:31:54;;;;;;;8.88;3.05;;;;;;;-145.45;100.00;62759.84;5246096;28;20057;-86
2021/12/10 05:34:49;;;;;;;9.40;3.58;;;;;;;-145.45;100.00;62759.84;5258188;28;20038;-86
2021/12/10 05:37:42;;;;;;;7.93;3.50;;;;;;;-145.45;100.00;62759.84;5262174;28;20037;-86
2021/12/10 05:41:02;;;;;;;10.50;3.60;;;;;;;-145.45;100.00;62759.84;5237073;28;20065;-87
2021/12/10 05:44:07;;;;;;;11.65;3.35;;;;;;;-145.45;100.00;62759.84;5243507;28;20057;-86
2021/12/10 05:46:41;;;;;;;10.60;3.33;;;;;;;-145.45;100.00;62759.84;5244750;28;20026;-87
2021/12/10 05:49:28;;;;;;;;;;;;;;;;;;;;;
2021/12/10 05:52:16;;;;;;;;;;;;;;;-145.45;100.00;62759.84;5262388;28;41243;-87
2021/12/10 05:54:56;;;;;;;13.98;3.58;;;;;;;-145.45;100.00;62759.84;5241644;28;19920;-86
2021/12/10 05:57:58;;;;;;;6.90;2.75;;;;;;;-145.45;100.00;62759.84;5244678;28;20033;-86
2021/12/10 06:01:46;;;;;;;10.23;3.92;;;;;;;-145.45;100.00;62759.84;5236470;28;20177;-85
2021/12/10 06:05:29;;;;;;;;;;;;;;;;;;;;;
2021/12/10 06:08:26;;;;;;;6.88;2.65;;;;;;;-145.45;100.00;62759.84;5239507;28;43198;-85
2021/12/10 06:12:09;;;;;;;12.05;3.08;;;;;;;-145.45;100.00;62759.84;5235939;28;20041;-85
2021/12/10 06:15:24;;;;;;;14.25;2.80;;;;;;;-145.45;100.00;62759.84;5180736;28;20034;-85
2021/12/10 06:18:35;;;;;;;;;;;;;;;;;;;;;
2021/12/10 06:21:19;;;;;;;8.88;2.92;;;;;;;-145.45;100.00;62759.84;5209376;28;40400;-85
2021/12/10 06:24:17;;;;;;;;;;;;;;;;;;;;;
2021/12/10 06:27:47;;;;;;;8.73;3.45;;;;;;;-145.45;100.00;62759.84;5241896;28;41417;-85
2021/12/10 06:30:48;;;;;;;13.50;3.13;;;;;;;-145.45;100.00;62759.84;5241668;28;20049;-85
2021/12/10 06:33:37;;;;;;;6.50;2.45;;;;;;;-145.45;100.00;62759.84;5221835;28;20513;-85
2021/12/10 06:36:31;;;;;;;8.65;3.05;;;;;;;-145.45;100.00;62759.84;5225026;28;20137;-84
2021/12/10 06:40:27;;;;;;;10.15;2.75;;;;;;;-145.45;100.00;62759.84;5227556;28;20148;-85
2021/12/10 06:43:44;;;;;;;;;;;;;;;;;;;;;
2021/12/10 06:46:37;;;;;;;7.93;3.03;;;;;;;-145.45;100.00;62759.84;5250269;28;41086;-85
2021/12/10 06:55:59;;;;;;;10.65;3.40;;;;;;;-145.45;100.00;62759.84;5177485;28;20094;-85
2021/12/10 06:58:39;;;;;;;6.47;3.03;;;;;;;-145.45;100.00;62759.84;5225655;28;20029;-85
2021/12/10 07:01:29;;;;;;;6.47;2.88;;;;;;;-145.45;100.00;62759.84;5229960;28;20045;-85
2021/12/10 07:04:11;;;;;;;10.57;3.55;;;;;;;-145.45;100.00;62759.84;5251365;28;20033;-86
2021/12/10 07:10:08;;;;;;;9.05;2.55;;;;;;;-145.45;100.00;62759.84;5263047;28;20033;-86
2021/12/10 07:13:01;;;;;;;11.70;2.95;;;;;;;-145.45;100.00;62759.84;5224888;28;20045;-87
2021/12/10 07:15:58;;;;;;;11.93;3.42;;;;;;;-145.45;100.00;62759.84;5235574;28;20037;-86
2021/12/10 07:18:36;;;;;;;10.60;3.05;;;;;;;-145.45;100.00;62759.84;5238327;28;20415;-86
2021/12/10 07:21:28;;;;;;;11.50;3.08;;;;;;;-145.45;100.00;62759.84;5250435;28;20044;-86
2021/12/10 07:24:13;;;;;;;9.35;2.47;;;;;;;-145.45;100.00;62759.84;5246093;28;20025;-85
2021/12/10 07:26:59;;;;;;;;;;;;;;;;;;;;;
2021/12/10 07:29:52;;;;;;;;;;;;;;;;;;;;;
2021/12/10 07:32:29;;;;;;;12.07;2.90;;;;;;;-145.45;100.00;62759.84;5261837;28;40982;-87
2021/12/10 07:35:30;;;;;;;;;;;;;;;-145.45;100.00;62759.84;5253063;28;20025;-86
2021/12/10 07:38:38;;;;;;;11.48;3.13;;;;;;;-145.45;100.00;62759.84;5247299;28;19913;-86
2021/12/10 07:41:21;;;;;;;10.27;3.08;;;;;;;-145.45;100.00;62759.84;5264958;28;20095;-85
2021/12/10 07:44:14;;;;;;;7.75;2.30;;;;;;;-145.45;100.00;62759.84;5265254;28;20034;-84
2021/12/10 07:47:21;;;;;;;9.27;2.50;;;;;;;-145.45;100.00;62759.84;5261138;28;20043;-85
2021/12/10 07:50:09;;;;;;;9.45;2.63;;;;;;;-145.45;100.00;62759.84;5226877;28;20042;-86
2021/12/10 07:56:12;;;;;;;9.50;2.63;;;;;;;-145.45;100.00;62759.84;5258433;28;20093;-86
2021/12/10 07:58:44;;;;;;;8.75;2.92;;;;;;;-145.45;100.00;62759.84;5252075;28;20037;-85
2021/12/10 08:01:37;;;;;;;10.73;2.58;;;;;;;-145.45;100.00;62759.84;5252838;28;20025;-86
2021/12/10 08:04:35;;;;;;;8.73;2.15;;;;;;;-145.45;100.00;62759.84;5245039;28;20128;-86
2021/12/10 08:07:15;;;;;;;8.75;2.00;;;;;;;-145.45;100.00;62759.84;5256159;28;20029;-85
2021/12/10 08:10:14;;;;;;;9.63;2.30;;;;;;;-145.45;100.00;62759.84;5265861;28;20041;-84
2021/12/10 08:12:54;;;;;;;10.35;2.63;;;;;;;-145.45;100.00;62759.84;5262615;28;20026;-85
2021/12/10 08:15:37;;;;;;;9.25;2.00;;;;;;;-145.45;100.00;62759.84;5264713;28;20153;-86
2021/12/10 08:18:11;;;;;;;8.75;2.58;;;;;;;-145.45;100.00;62759.84;5266410;28;20103;-83
2021/12/10 08:21:08;;;;;;;9.90;2.40;;;;;;;-145.45;100.00;62759.84;5267263;28;20808;-85
2021/12/10 08:24:04;;;;;;;11.43;2.58;;;;;;;-145.45;100.00;62759.84;5270782;28;20512;-87
2021/12/10 08:28:05;;;;;;;;;;;;;;;;;;;;;
2021/12/10 08:30:53;;;;;;;7.60;2.17;;;;;;;-145.45;100.00;62759.84;5141784;29;40509;-85
2021/12/10 08:33:59;;;;;;;9.05;2.28;;;;;;;-145.45;100.00;62759.84;5172932;28;20114;-84
2021/12/10 08:36:48;;;;;;;6.93;1.90;;;;;;;-145.45;100.00;62759.84;5179493;28;20551;-86
2021/12/10 08:39:40;;;;;;;8.70;2.47;;;;;;;-145.45;100.00;62759.84;5236060;28;20759;-86
2021/12/10 08:42:20;;;;;;;8.45;2.22;;;;;;;-145.45;100.00;62759.84;5251041;28;20466;-86
2021/12/10 08:45:31;;;;;;;9.05;3.33;;;;;;;-145.45;100.00;62759.84;5262319;28;20039;-85
2021/12/10 08:48:52;;;;;;;8.40;2.22;;;;;;;-145.45;100.00;62759.84;5226639;28;20065;-85
2021/12/10 08:52:06;;;;;;;9.07;2.45;;;;;;;-145.45;100.00;62759.84;5229104;28;20585;-85
2021/12/10 08:58:21;;;;;;;7.80;2.97;;;;;;;-145.45;100.00;62759.84;5251627;28;20026;-87
2021/12/10 09:01:07;;;;;;;8.57;3.15;;;;;;;-145.45;100.00;62759.84;5209455;28;20042;-87
2021/12/10 09:03:57;;;;;;;10.15;2.50;;;;;;;-145.45;100.00;62759.84;5203572;28;20046;-86
2021/12/10 09:21:28;;;;;;;8.93;2.85;;;;;;;-145.45;100.00;62759.84;5167026;28;20055;-84
2021/12/10 09:24:33;;;;;;;9.55;3.65;;;;;;;-145.45;100.00;62759.84;5192055;28;20498;-85
2021/12/10 09:28:09;;;;;;;;;;;;;;;;;;;;;
2021/12/10 09:31:04;;;;;;;9.48;2.58;;;;;;;-145.45;100.00;62759.84;5236301;28;41263;-84
2021/12/10 09:33:39;;;;;;;9.52;3.70;;;;;;;-145.45;100.00;62759.84;5242342;28;20028;-85
2021/12/10 09:36:29;;;;;;;8.73;3.35;;;;;;;-145.45;100.00;62759.84;5262329;28;20466;-85
2021/12/10 09:39:08;;;;;;;8.95;3.22;;;;;;;-145.45;100.00;62759.84;5245301;28;20040;-84
2021/12/10 09:42:12;;;;;;;12.05;3.53;;;;;;;-145.45;100.00;62759.84;5267283;28;20056;-84
2021/12/10 09:44:55;;;;;;;8.65;3.25;;;;;;;-145.45;100.00;62759.84;5265299;28;20053;-84
2021/12/10 09:48:16;;;;;;;5.40;2.63;;;;;;;-145.45;100.00;62759.84;5264481;28;20021;-84
2021/12/10 09:55:29;;;;;;;7.70;3.08;;;;;;;-145.45;100.00;62759.84;5185214;28;20094;-86
2021/12/10 10:01:47;;;;;;;7.32;3.30;;;;;;;-145.45;100.00;62759.84;5176711;28;20106;-85
2021/12/10 10:04:28;;;;;;;12.48;4.50;;;;;;;-145.45;100.00;62759.84;5154809;28;20046;-86
2021/12/10 10:19:05;;;;;;;11.15;2.88;;;;;;;-145.45;100.00;62759.84;5216205;28;20039;-86
2021/12/10 10:41:30;;;;;;;;;;;;;;;;;;;;;
2021/12/10 10:48:43;;;;;;;;;;;;;;;;;;;;;
2021/12/10 10:51:53;;;;;;;;;;;;;;;;;;;;;
2021/12/10 10:58:16;;;;;;;8.05;2.65;;;;;;;-145.45;100.00;62759.84;5130706;28;20508;-86
2021/12/10 11:04:35;;;;;;;8.88;2.70;;;;;;;-145.45;100.00;62759.84;5212923;28;20133;-88
2021/12/10 11:07:16;;;;;;;9.25;2.60;;;;;;;-145.45;100.00;62759.84;5203826;28;20053;-87
2021/12/10 11:14:07;;;;;;;7.72;2.42;;;;;;;-145.45;100.00;62759.84;5245819;28;20038;-87
2021/12/10 11:16:43;;;;;;;9.98;3.05;;;;;;;-145.45;100.00;62759.84;5211689;28;20035;-87
2021/12/10 11:19:30;;;;;;;6.47;2.50;;;;;;;-145.45;100.00;62759.84;5219045;28;20042;-87
2021/12/10 11:22:21;;;;;;;8.25;2.40;;;;;;;-145.45;100.00;62759.84;5223972;28;20030;-87
2021/12/10 11:25:18;;;;;;;6.68;2.35;;;;;;;-145.45;100.00;62759.84;5238354;28;20100;-87
2021/12/10 11:28:11;;;;;;;6.72;2.75;;;;;;;-145.45;100.00;62759.84;5224522;28;20022;-86
2021/12/10 11:30:56;;;;;;;9.88;2.72;;;;;;;-145.45;100.00;62759.84;5241730;28;20530;-87
2021/12/10 11:33:43;;;;;;;11.65;3.03;;;;;;;-145.45;100.00;62759.84;5244525;28;20033;-86
2021/12/10 11:36:28;;;;;;;7.72;2.60;;;;;;;-145.45;100.00;62759.84;5222812;28;20036;-86
2021/12/10 11:39:39;;;;;;;15.23;3.28;;;;;;;-145.45;100.00;62759.84;5249514;28;20053;-86
2021/12/10 11:42:49;;;;;;;6.53;2.75;;;;;;;-145.45;100.00;62759.84;5244091;28;20069;-87
2021/12/10 11:45:41;;;;;;;11.30;2.88;;;;;;;-145.45;100.00;62759.84;5178365;28;20023;-87
2021/12/10 11:48:26;;;;;;;11.73;3.10;;;;;;;-145.45;100.00;62759.84;5224653;28;20041;-86
2021/12/10 11:51:16;;;;;;;7.78;2.70;;;;;;;-145.45;100.00;62759.84;5241810;28;20029;-86
2021/12/10 11:54:24;;;;;;;9.02;2.78;;;;;;;-145.45;100.00;62759.84;5221016;28;20034;-87
2021/12/10 11:57:15;;;;;;;6.95;2.95;;;;;;;-145.45;100.00;62759.84;5215743;28;20048;-87
2021/12/10 12:00:16;;;;;;;9.68;2.80;;;;;;;-145.45;100.00;62759.84;5221084;28;20038;-87
2021/12/10 12:03:05;;;;;;;10.35;2.90;;;;;;;-145.45;100.00;62759.84;5232822;28;20057;-87
2021/12/10 12:05:41;;;;;;;10.88;2.70;;;;;;;-145.45;100.00;62759.84;5224137;28;20078;-87
2021/12/10 12:08:20;;;;;;;11.90;3.10;;;;;;;-145.45;100.00;62759.84;5224771;28;20018;-87
2021/12/10 12:11:16;;;;;;;9.25;2.95;;;;;;;-145.45;100.00;62759.84;5220749;28;20033;-87
2021/12/10 12:14:17;;;;;;;10.85;2.60;;;;;;;-145.45;100.00;62759.84;5223414;28;20034;-87
2021/12/10 12:17:37;;;;;;;8.68;2.65;;;;;;;-145.45;100.00;62759.84;5241215;28;20112;-87
2021/12/10 12:21:01;;;;;;;7.25;2.83;;;;;;;-145.45;100.00;62759.84;5206489;28;20033;-87
2021/12/10 12:26:31;;;;;;;8.45;3.03;;;;;;;-145.45;100.00;62759.84;5241983;28;20097;-87
2021/12/10 12:29:20;;;;;;;8.57;2.97;;;;;;;-145.45;100.00;62759.84;5223076;28;20022;-86
2021/12/10 12:32:07;;;;;;;9.43;2.85;;;;;;;-145.45;100.00;62759.84;5222079;28;20531;-87
2021/12/10 12:38:30;;;;;;;6.78;2.85;;;;;;;-145.45;100.00;62759.84;5250340;28;20018;-86
2021/12/10 12:41:27;;;;;;;6.97;2.42;;;;;;;-145.45;100.00;62759.84;5247955;28;20045;-87
2021/12/10 12:44:23;;;;;;;10.82;2.90;;;;;;;-145.45;100.00;62759.84;5244205;28;20049;-87
2021/12/10 12:47:09;;;;;;;9.55;2.90;;;;;;;-145.45;100.00;62759.84;5259253;28;20033;-87
2021/12/10 12:50:16;;;;;;;11.32;2.83;;;;;;;-145.45;100.00;62759.84;5225261;28;20021;-86
2021/12/10 12:53:21;;;;;;;7.63;2.65;;;;;;;-145.45;100.00;62759.84;5241847;28;20022;-87
2021/12/10 12:55:59;;;;;;;8.18;2.80;;;;;;;-145.45;100.00;62759.84;5220927;28;20069;-87
2021/12/10 12:58:58;;;;;;;12.38;2.90;;;;;;;-145.45;100.00;62759.84;5223552;28;20409;-88
2021/12/10 13:01:34;;;;;;;12.73;3.45;;;;;;;-145.45;100.00;62759.84;5256154;28;20557;-87
2021/12/10 13:04:12;;;;;;;11.85;4.18;;;;;;;-145.45;100.00;62759.84;5266791;28;20064;-87
2021/12/10 13:07:11;;;;;;;12.95;3.20;;;;;;;-145.45;100.00;62759.84;5293655;28;20021;-88
2021/12/10 13:09:51;;;;;;;11.75;2.92;;;;;;;-145.45;100.00;62759.84;5249616;28;20068;-87
2021/12/10 13:15:25;;;;;;;11.95;3.05;;;;;;;-145.45;100.00;62759.84;5261494;28;20033;-87
2021/12/10 13:18:00;;;;;;;9.63;2.90;;;;;;;-145.45;100.00;62759.84;5243285;28;20021;-87
2021/12/10 13:20:42;;;;;;;7.95;2.88;;;;;;;-145.45;100.00;62759.84;5243255;28;20030;-87
2021/12/10 13:23:19;;;;;;;7.30;2.80;;;;;;;-145.45;100.00;62759.84;5242804;28;20033;-87
2021/12/10 13:25:55;;;;;;;10.18;2.67;;;;;;;-145.45;100.00;62759.84;5264202;28;20022;-87
2021/12/10 13:28:29;;;;;;;8.37;3.10;;;;;;;-145.45;100.00;62759.84;5258682;28;20331;-87
2021/12/10 13:31:15;;;;;;;9.57;3.05;;;;;;;-145.45;100.00;62759.84;5266275;28;20569;-87
2021/12/10 13:33:48;;;;;;;10.90;3.08;;;;;;;-145.45;100.00;62759.84;5285871;28;20362;-87
2021/12/10 13:36:22;;;;;;;8.00;2.92;;;;;;;-145.45;100.00;62759.84;5286398;28;20029;-88
2021/12/10 13:38:57;;;;;;;9.10;3.95;;;;;;;-145.45;100.00;62759.84;5267792;28;20016;-87
2021/12/10 13:41:31;;;;;;;11.52;3.90;;;;;;;-145.45;100.00;62759.84;5252717;28;20018;-88
2021/12/10 13:44:21;;;;;;;12.07;3.90;;;;;;;-145.45;100.00;62759.84;5246809;28;20106;-87
2021/12/10 13:46:54;;;;;;;10.15;3.60;;;;;;;-145.45;100.00;62759.84;5246555;28;20096;-87
2021/12/10 13:49:48;;;;;;;10.77;3.85;;;;;;;-145.45;100.00;62759.84;5246526;28;20026;-86
2021/12/10 13:52:43;;;;;;;10.32;4.20;;;;;;;-145.45;100.00;62759.84;5247473;28;20054;-86
2021/12/10 13:55:48;;;;;;;;;;;;;;;;;;;;;
2021/12/10 13:58:50;;;;;;;9.45;3.90;;;;;;;-145.45;100.00;62759.84;5256058;28;39812;-87
2021/12/10 14:01:56;;;;;;;7.43;3.85;;;;;;;-145.45;100.00;62759.84;5245390;28;20033;-87
2021/12/10 14:04:43;;;;;;;9.05;4.25;;;;;;;-145.45;100.00;62759.84;5245490;28;20491;-87
2021/12/10 14:07:19;;;;;;;8.77;3.90;;;;;;;-145.45;100.00;62759.84;5243753;28;20388;-87
2021/12/10 14:10:20;;;;;;;10.32;3.85;;;;;;;-145.45;100.00;62759.84;5245968;28;20018;-87
2021/12/10 14:13:13;;;;;;;6.07;3.97;;;;;;;-145.45;100.00;62759.84;5236373;28;20154;-88
2021/12/10 14:16:00;;;;;;;9.27;4.43;;;;;;;-145.45;100.00;62759.84;5263853;28;20032;-88
2021/12/10 14:18:42;;;;;;;11.52;4.78;;;;;;;-145.45;100.00;62759.84;5259267;28;20553;-88
2021/12/10 14:21:22;;;;;;;11.98;4.78;;;;;;;-145.45;100.00;62759.84;5259885;28;20025;-88
2021/12/10 14:24:10;;;;;;;9.75;4.70;;;;;;;-145.45;100.00;62759.84;5238126;28;20117;-88
2021/12/10 14:27:07;;;;;;;11.50;5.25;;;;;;;-145.45;100.00;62759.84;5248280;28;20018;-87
2021/12/10 14:29:39;;;;;;;9.63;4.93;;;;;;;-145.45;100.00;62759.84;5240151;28;20038;-88
2021/12/10 14:32:28;;;;;;;9.38;4.97;;;;;;;-145.45;100.00;62759.84;5245446;28;20116;-88
2021/12/10 14:35:11;;;;;;;10.27;4.80;;;;;;;-145.45;100.00;62759.84;5233535;28;20018;-87
2021/12/10 14:38:29;;;;;;;10.23;4.63;;;;;;;-145.45;100.00;62759.84;5264638;28;20040;-88
2021/12/10 14:41:16;;;;;;;12.57;4.93;;;;;;;-145.45;100.00;62759.84;5254403;28;20022;-88
2021/12/10 14:44:13;;;;;;;8.95;5.20;;;;;;;-145.45;100.00;62759.84;5265097;28;20033;-87
2021/12/10 14:47:00;;;;;;;9.82;4.90;;;;;;;-145.45;100.00;62759.84;5267828;28;20033;-87
2021/12/10 14:49:34;;;;;;;;;;;;;;;-145.45;100.00;62759.84;5248441;28;20025;-87
2021/12/10 14:52:24;;;;;;;9.18;4.55;;;;;;;-145.45;100.00;62759.84;5267064;28;20731;-88
2021/12/10 14:55:08;;;;;;;6.88;4.55;;;;;;;-145.45;100.00;62759.84;5247660;28;20029;-87
2021/12/10 14:58:06;;;;;;;13.65;5.20;;;;;;;-145.45;100.00;62759.84;5246872;28;20501;-88
2021/12/10 15:00:50;;;;;;;11.63;5.10;;;;;;;-145.45;100.00;62759.84;5240519;28;20029;-88
2021/12/10 15:03:53;;;;;;;15.05;4.80;;;;;;;-145.45;100.00;62759.84;5251155;28;20045;-87
2021/12/10 15:06:28;;;;;;;15.90;5.18;;;;;;;-145.45;100.00;62759.84;5254904;28;20375;-87
2021/12/10 15:09:19;;;;;;;11.63;5.30;;;;;;;-145.45;100.00;62759.84;5251966;28;20014;-88
2021/12/10 15:12:07;;;;;;;12.52;5.18;;;;;;;-145.45;100.00;62759.84;5260781;28;20030;-88
2021/12/10 15:14:40;;;;;;;13.45;5.50;;;;;;;-145.45;100.00;62759.84;5246950;28;20423;-87
2021/12/10 15:17:20;;;;;;;10.38;5.28;;;;;;;-145.45;100.00;62759.84;5265438;28;20037;-87
2021/12/10 15:19:56;;;;;;;9.70;6.07;;;;;;;-145.45;100.00;62759.84;5244599;28;20028;-88
2021/12/10 15:22:42;;;;;;;11.48;6.25;;;;;;;-145.45;100.00;62759.84;5246354;28;20057;-87
2021/12/10 15:25:58;;;;;;;9.88;6.40;;;;;;;-145.45;100.00;62759.84;5273405;28;20025;-87
2021/12/10 15:28:54;;;;;;;16.88;6.97;;;;;;;-145.45;100.00;62759.84;5245469;28;20045;-87
2021/12/10 15:32:03;;;;;;;15.23;7.40;;;;;;;-145.45;100.00;62759.84;5242822;28;20026;-86
2021/12/10 15:34:40;;;;;;;10.32;6.40;;;;;;;-145.45;100.00;62759.84;5240193;28;20053;-86
2021/12/10 15:37:42;;;;;;;8.38;7.03;;;;;;;-145.45;100.00;62759.84;5279146;28;20090;-86
2021/12/10 15:40:32;;;;;;;12.07;6.75;;;;;;;-145.45;100.00;62759.84;5271200;28;20098;-87
2021/12/10 15:43:13;;;;;;;14.07;7.22;;;;;;;-145.45;100.00;62759.84;5262894;28;20446;-86
2021/12/10 15:45:56;;;;;;;17.10;7.70;;;;;;;-145.45;100.00;62759.84;5263773;28;20017;-85
2021/12/10 15:48:33;;;;;;;11.93;7.72;;;;;;;-145.45;100.00;62759.84;5268944;28;20080;-86
2021/12/10 15:51:21;;;;;;;11.40;7.35;;;;;;;-145.45;100.00;62759.84;5248204;28;20170;-86
2021/12/10 15:54:00;;;;;;;14.30;8.00;;;;;;;-145.45;100.00;62759.84;5226046;28;20744;-86
2021/12/10 15:56:39;;;;;;;15.07;7.57;;;;;;;-145.45;100.00;62759.84;5222288;28;20034;-87
2021/12/10 15:59:14;;;;;;;16.00;8.82;;;;;;;-145.45;100.00;62759.84;5218673;28;20034;-88
2021/12/10 16:01:49;;;;;;;12.65;7.85;;;;;;;-145.45;100.00;62759.84;5201170;28;20531;-87
2021/12/10 16:05:01;;;;;;;12.88;8.40;;;;;;;-145.45;100.00;62759.84;5199000;28;20046;-88
2021/12/10 16:07:47;;;;;;;13.95;7.63;;;;;;;-145.45;100.00;62759.84;5128147;28;20046;-88
2021/12/10 16:10:32;;;;;;;17.55;9.20;;;;;;;-145.45;100.00;62759.84;5201338;28;20077;-88
2021/12/10 16:13:15;;;;;;;20.20;9.02;;;;;;;-145.45;100.00;62759.84;5217708;28;20034;-88
2021/12/10 16:15:54;;;;;;;17.45;9.38;;;;;;;-145.45;100.00;62759.84;5221916;28;20030;-86
2021/12/10 16:19:08;;;;;;;16.63;9.48;;;;;;;-145.45;100.00;62759.84;5210869;28;20126;-86